Terminal Aerodrome Forecast
Issued by NWS Houston/Galveston, TX

Current Version | Previous Version | Text Only | Print | Product List | Glossary Off
Versions: 1 2 3 4 5 6 7 8 9 10 11 12 13 14 15 16 17 18 19 20

000
FTUS44 KHGX 181503 AAC
TAFCLL
TAF AMD
KCLL 181503Z 1815/1912 20011KT P6SM BKN016
      TEMPO 1815/1817 SCT016
     FM181700 20010KT P6SM FEW040
     FM182000 20007KT P6SM SKC
     FM190900 19003KT P6SM FEW010=

USA.gov is the U.S. government's official web portal to all federal, state and local government web resources and services.